Oslo, Norway

5:27 AM CET on December 10, 2016 (GMT +0100)
Gardermoen | | Change Station

Elev 679 ft 60.21 °N, 11.08 °E | Updated 37 minutes ago

Overcast
Overcast
32 °F
Feels Like 29 °F
N
4
Wind Variable Wind from NE

Today
High -- | Low -- °F
--% Chance of Precip.
Yesterday
High -- | Low -- °F
Precip. -- in
Pressure 29.68 in
Visibility 6.2 miles
Clouds Scattered Clouds 4700 ft
Overcast 14000 ft
Windchill 29 °F
Dew Point 30 °F
Humidity 93%
Rainfall 0.00 in
Snow Depth Not available.
9:08 AM 3:08 PM
Waxing Gibbous, 80% visible
METAR ENGM 100350Z 04003KT 9999 SCT047 OVC140 00/M01 Q1005
Pressure 29.68 in
Visibility 6.2 miles
Clouds Scattered Clouds 4700 ft
Overcast 14000 ft
Windchill 29 °F
Dew Point 30 °F
Humidity 93%
Rainfall 0.00 in
Snow Depth Not available.
9:08 AM 3:08 PM
Waxing Gibbous, 80% visible
METAR ENGM 100350Z 04003KT 9999 SCT047 OVC140 00/M01 Q1005

10-Day Weather Forecast

×

Almanac

Astronomy

Dec. 10, 2016 Rise Set
Actual Time
Civil Twilight
Nautical Twilight
Astronomical Twilight
Moon
Length of Visible Light
Length of Day
Tomorrow will be .
, % of the Moon is Illuminated

Today's Extremes

Country Highs Country Lows

Community

WunderPhotos

Upload Photos

1,956,529 photos uploaded!

WunderBlog® & News

Nearby

Air Quality

  Air Quality AQ Index Pollutant
Not available.

Snow Depth

Station Depth Elevation

Earthquake Activity

City Distance Mag. Time & Date
Minimum magnitude displayed is 2.5.

Coastal Water Temperatures

Place Temperature

Stations

Nearby Weather Stations

Station Location Temp. Windchill Dew Point Humidity Wind Precip. Elev Updated Type